Astigarraga, Spain
Current Conditions -  °F | °C
As of 9:30 AM on Thursday 18 Dec 2014 (Local Time) from LESO Reporting Station
Drizzle Drizzle  
Wind Chill: 52°   Ceiling: 1500
Heat Index: 52°   Visibility: 1.9mi
Dew Point: 52°   Wind: 8mph
Humidity: 100%   Direction: 210°SSW
Pressure: 30.42"   Gusts: NA
Location:  43.28°N, 1.95°W
Report Text: LESO 180830Z 21007KT 180V240 3100 -DZ BR SCT011 BKN015OVC020 11/11 Q1030
Loading
Personal Weather Stations






























Interactive Weather Map New forecast layout! Learn more

10-Day Weather Forecast

Advertisements
Track Severe Weather on mobile